Time;durP1;ratioP1;P1;durP2;ratioP2;P2;SDS_P1;SDS_P2;PMS_P1;PMS_P2;Temp;Humidity;BMP_temperature;BMP_pressure;BME280_temperature;BME280_humidity;BME280_pressure;Samples;Min_cycle;Max_cycle;Signal;HPM_P1;HPM_P2
2022/05/12 00:00:16;;;;;;;7.53;5.53;;;;;;;17.50;83.24;99949.72;5036063;28;20044;-68
2022/05/12 00:02:44;;;;;;;10.23;5.03;;;;;;;17.47;82.60;99950.00;5040383;28;20095;-68
2022/05/12 00:05:12;;;;;;;7.13;5.53;;;;;;;17.47;82.91;99958.00;5021458;28;20045;-67
2022/05/12 00:07:40;;;;;;;9.00;4.85;;;;;;;17.47;82.10;99950.00;5023651;28;20379;-67
2022/05/12 00:10:08;;;;;;;8.77;4.68;;;;;;;17.49;81.91;99945.41;5024487;28;20046;-67
2022/05/12 00:12:37;;;;;;;9.75;4.32;;;;;;;17.47;81.75;99926.06;5039873;28;20056;-67
2022/05/12 00:15:06;;;;;;;12.68;4.60;;;;;;;17.48;81.67;99940.22;5037872;28;20057;-67
2022/05/12 00:17:34;;;;;;;5.75;4.32;;;;;;;17.44;81.35;99937.88;5041679;28;20049;-67
2022/05/12 00:20:03;;;;;;;5.45;4.05;;;;;;;17.41;81.60;99947.97;5040131;28;20507;-66
2022/05/12 00:22:30;;;;;;;5.82;4.25;;;;;;;17.40;81.51;99951.63;5032704;28;20526;-68
2022/05/12 00:24:58;;;;;;;5.72;4.05;;;;;;;17.39;81.27;99950.78;5036310;28;20061;-68
2022/05/12 00:27:25;;;;;;;8.13;4.50;;;;;;;17.38;80.66;99927.84;5033225;28;20451;-69
2022/05/12 00:29:52;;;;;;;8.15;4.18;;;;;;;17.38;80.58;99911.00;5054345;28;20053;-68
2022/05/12 00:32:19;;;;;;;13.57;4.20;;;;;;;17.37;80.45;99920.81;5032627;28;20047;-68
2022/05/12 00:34:46;;;;;;;10.63;4.45;;;;;;;17.39;80.08;99926.84;5039517;28;20045;-68
2022/05/12 00:37:13;;;;;;;6.47;4.22;;;;;;;17.39;80.09;99932.16;5038931;28;20053;-66
2022/05/12 00:39:41;;;;;;;6.53;4.15;;;;;;;17.40;80.22;99925.84;5041469;28;20148;-66
2022/05/12 00:42:08;;;;;;;8.27;3.80;;;;;;;17.43;79.75;99920.22;5031119;28;20037;-68
2022/05/12 00:44:35;;;;;;;12.35;5.00;;;;;;;17.43;79.57;99920.22;5040429;28;20079;-68
2022/05/12 00:47:02;;;;;;;6.72;3.40;;;;;;;17.45;79.44;99922.72;5041387;28;20049;-68
2022/05/12 00:49:34;;;;;;;9.35;4.40;;;;;;;17.45;78.90;99928.88;5044766;28;20071;-68
2022/05/12 00:52:06;;;;;;;10.55;4.25;;;;;;;17.47;78.88;99915.41;5039932;28;20136;-67
2022/05/12 00:54:57;;;;;;;8.15;3.70;;;;;;;17.49;78.42;99923.28;5038228;28;20045;-67
2022/05/12 00:57:28;;;;;;;9.52;3.80;;;;;;;17.49;78.45;99918.78;5046386;28;20064;-68
2022/05/12 00:59:57;;;;;;;9.23;4.35;;;;;;;17.51;78.36;99921.28;5052116;28;20048;-69
2022/05/12 01:02:25;;;;;;;6.07;3.40;;;;;;;17.51;78.20;99918.63;5053034;28;20141;-67
2022/05/12 01:04:56;;;;;;;7.35;3.50;;;;;;;17.51;78.06;99916.78;5048616;28;20025;-68
2022/05/12 01:07:23;;;;;;;4.15;3.53;;;;;;;17.51;77.97;99900.81;5018984;28;20136;-68
2022/05/12 01:09:50;;;;;;;13.05;5.00;;;;;;;17.53;77.94;99912.16;5039859;28;20049;-67
2022/05/12 01:12:17;;;;;;;7.28;4.68;;;;;;;17.53;77.87;99925.47;5037351;28;20078;-67
2022/05/12 01:14:45;;;;;;;11.68;4.32;;;;;;;17.53;77.72;99914.84;5038473;28;20115;-67
2022/05/12 01:17:12;;;;;;;6.40;3.88;;;;;;;17.55;78.23;99926.16;5027395;28;20061;-68
2022/05/12 01:19:41;;;;;;;5.30;4.03;;;;;;;17.57;77.99;99944.66;5008286;28;20053;-68
2022/05/12 01:22:11;;;;;;;5.25;4.32;;;;;;;17.58;78.61;99970.25;5024301;28;20107;-67
2022/05/12 01:24:42;;;;;;;11.10;4.65;;;;;;;17.58;78.66;99960.44;5051827;28;20056;-67
2022/05/12 01:27:19;;;;;;;6.70;3.72;;;;;;;17.63;78.13;99981.28;5017334;28;20117;-68
2022/05/12 01:29:52;;;;;;;7.13;3.97;;;;;;;17.65;78.27;99989.94;5035090;28;20357;-68
2022/05/12 01:32:22;;;;;;;9.82;4.38;;;;;;;17.68;76.53;99985.16;5037424;28;20512;-68
2022/05/12 01:34:49;;;;;;;5.20;3.40;;;;;;;17.75;75.95;100029.88;5028723;28;20049;-68
2022/05/12 01:37:16;;;;;;;6.97;3.72;;;;;;;17.81;76.30;100039.91;5039036;28;20056;-67
2022/05/12 01:39:43;;;;;;;6.63;3.75;;;;;;;17.74;78.94;100014.84;5041381;28;20044;-68
2022/05/12 01:42:11;;;;;;;8.70;3.85;;;;;;;17.55;80.77;100010.47;5037283;28;20045;-68
2022/05/12 01:44:40;;;;;;;7.95;4.07;;;;;;;17.34;82.02;100008.94;5038629;28;20056;-68
2022/05/12 01:47:08;;;;;;;5.88;4.10;;;;;;;17.24;82.32;100004.63;5017774;28;20060;-68
2022/05/12 01:49:36;;;;;;;8.50;4.00;;;;;;;17.19;83.01;100008.56;5021781;28;20060;-67
2022/05/12 01:52:03;;;;;;;5.90;4.13;;;;;;;17.08;84.40;100027.41;5034520;28;20057;-67
2022/05/12 01:54:31;;;;;;;9.25;4.45;;;;;;;17.02;84.39;100019.16;5035854;28;20048;-68
2022/05/12 01:56:58;;;;;;;6.72;3.65;;;;;;;17.00;84.65;100037.09;5040696;28;20155;-67
2022/05/12 01:59:25;;;;;;;9.27;4.32;;;;;;;16.91;84.95;100052.94;5036492;28;20467;-67
2022/05/12 02:01:53;;;;;;;6.53;4.55;;;;;;;16.83;85.71;100054.63;5035946;28;20139;-68
2022/05/12 02:04:20;;;;;;;5.93;4.30;;;;;;;16.76;85.85;100049.06;5036668;28;20056;-67
2022/05/12 02:06:48;;;;;;;8.40;4.45;;;;;;;16.66;86.79;100035.78;5033765;28;20064;-68
2022/05/12 02:09:16;;;;;;;7.90;4.68;;;;;;;16.63;87.72;100025.44;5036719;28;20059;-68
2022/05/12 02:11:44;;;;;;;8.25;4.55;;;;;;;16.52;88.04;100048.66;5019945;28;20159;-68
2022/05/12 02:14:11;;;;;;;5.85;4.28;;;;;;;16.42;89.54;100060.13;5034125;28;20052;-68
2022/05/12 02:16:39;;;;;;;10.20;5.00;;;;;;;16.34;90.12;100067.13;5038115;28;20090;-67
2022/05/12 02:19:08;;;;;;;9.93;5.13;;;;;;;16.26;91.03;100085.63;5037138;28;20064;-68
2022/05/12 02:21:35;;;;;;;12.80;5.30;;;;;;;16.24;91.51;100076.94;5038672;28;20049;-68
2022/05/12 02:24:03;;;;;;;10.15;4.82;;;;;;;16.17;92.70;100104.06;5035276;28;20059;-68
2022/05/12 02:26:30;;;;;;;7.90;4.75;;;;;;;16.12;93.44;100098.34;5035635;28;21228;-67
2022/05/12 02:28:58;;;;;;;7.53;4.55;;;;;;;16.09;94.42;100089.78;5034378;28;20073;-68
2022/05/12 02:31:25;;;;;;;8.73;4.90;;;;;;;16.03;96.76;100115.09;5038534;28;20087;-68
2022/05/12 02:33:52;;;;;;;13.85;6.20;;;;;;;15.89;98.29;100095.06;5036208;28;20055;-66
2022/05/12 02:36:20;;;;;;;10.02;5.30;;;;;;;15.80;99.82;100113.63;5037376;28;20041;-68
2022/05/12 02:38:47;;;;;;;14.32;5.78;;;;;;;15.70;100.00;100129.53;5037796;28;20140;-68
2022/05/12 02:41:14;;;;;;;10.52;6.25;;;;;;;15.47;100.00;100149.25;5041237;28;20053;-68
2022/05/12 02:43:42;;;;;;;9.63;5.78;;;;;;;15.39;100.00;100141.94;5044503;28;20045;-67
2022/05/12 02:46:12;;;;;;;14.25;6.07;;;;;;;15.28;100.00;100142.06;5019581;28;20412;-68
2022/05/12 02:48:42;;;;;;;14.77;6.55;;;;;;;15.19;100.00;100146.34;5040300;28;20415;-68
2022/05/12 02:51:10;;;;;;;11.02;5.80;;;;;;;15.13;100.00;100145.06;5043917;28;20091;-69
2022/05/12 02:53:38;;;;;;;12.25;6.38;;;;;;;15.02;100.00;100149.59;5038877;28;20325;-68
2022/05/12 02:56:06;;;;;;;9.93;6.10;;;;;;;14.99;100.00;100141.88;5037558;28;20045;-68
2022/05/12 02:58:33;;;;;;;15.30;6.50;;;;;;;14.97;100.00;100147.31;5041577;28;20088;-68
2022/05/12 03:01:02;;;;;;;13.35;7.35;;;;;;;14.96;100.00;100136.88;5035270;28;20053;-68
2022/05/12 03:03:29;;;;;;;13.07;5.95;;;;;;;14.87;100.00;100133.19;5037577;28;20727;-68
2022/05/12 03:05:57;;;;;;;14.90;6.28;;;;;;;14.71;100.00;100115.06;5039518;28;20048;-68
2022/05/12 03:08:24;;;;;;;13.48;6.00;;;;;;;14.64;100.00;100109.47;5042918;28;20064;-68
2022/05/12 03:10:51;;;;;;;9.73;5.47;;;;;;;14.64;100.00;100122.72;5037259;28;20135;-68
2022/05/12 03:13:19;;;;;;;14.65;6.05;;;;;;;14.58;100.00;100141.75;5046062;28;20057;-67
2022/05/12 03:15:46;;;;;;;14.75;5.63;;;;;;;14.58;100.00;100146.22;5038039;28;20071;-68
2022/05/12 03:18:13;;;;;;;12.82;6.10;;;;;;;14.58;100.00;100147.03;5036143;28;20272;-69
2022/05/12 03:20:41;;;;;;;17.13;5.68;;;;;;;14.57;100.00;100129.47;5039765;28;20061;-68
2022/05/12 03:23:08;;;;;;;12.88;5.43;;;;;;;14.60;100.00;100117.78;5044952;28;20053;-68
2022/05/12 03:25:35;;;;;;;11.60;5.47;;;;;;;14.58;100.00;100139.09;5035926;28;20052;-68
2022/05/12 03:28:03;;;;;;;10.63;5.30;;;;;;;14.58;100.00;100162.09;5039123;28;20053;-68
2022/05/12 03:30:30;;;;;;;8.98;5.45;;;;;;;14.52;100.00;100166.09;5036059;28;20033;-68
2022/05/12 03:32:57;;;;;;;14.45;6.13;;;;;;;14.48;100.00;100171.75;5045722;28;20123;-68
2022/05/12 03:35:25;;;;;;;14.38;6.47;;;;;;;14.40;100.00;100180.31;5034107;28;20080;-68
2022/05/12 03:37:52;;;;;;;10.45;6.43;;;;;;;14.39;100.00;100173.34;5039273;28;20047;-67
2022/05/12 03:40:19;;;;;;;11.35;5.85;;;;;;;14.39;100.00;100160.94;5037424;28;20041;-68
2022/05/12 03:42:47;;;;;;;12.48;6.28;;;;;;;14.39;100.00;100149.50;5039496;28;20053;-68
2022/05/12 03:45:15;;;;;;;12.07;5.97;;;;;;;14.41;100.00;100152.88;5038890;28;20049;-69
2022/05/12 03:47:48;;;;;;;6.55;5.35;;;;;;;14.38;100.00;100167.22;5036174;28;20071;-68
2022/05/12 03:50:17;;;;;;;13.45;5.80;;;;;;;14.38;100.00;100169.84;5042995;28;20056;-67
2022/05/12 03:52:49;;;;;;;10.75;4.85;;;;;;;14.37;100.00;100168.19;5040199;28;20063;-67
2022/05/12 03:55:19;;;;;;;11.88;5.78;;;;;;;14.35;100.00;100177.22;5038031;28;20057;-67
2022/05/12 03:57:47;;;;;;;14.00;5.10;;;;;;;14.32;100.00;100173.03;5034905;28;20080;-67
2022/05/12 04:00:19;;;;;;;15.40;6.30;;;;;;;14.31;100.00;100176.59;5032967;28;20068;-67
2022/05/12 04:02:47;;;;;;;13.52;5.03;;;;;;;14.33;100.00;100172.03;5037967;28;20152;-68
2022/05/12 04:05:14;;;;;;;8.27;4.90;;;;;;;14.34;100.00;100186.97;5037420;28;20666;-68
2022/05/12 04:07:49;;;;;;;12.15;5.40;;;;;;;14.27;100.00;100200.81;5041205;28;20061;-69
2022/05/12 04:10:17;;;;;;;11.32;4.75;;;;;;;14.26;100.00;100212.38;5021149;28;20057;-68
2022/05/12 04:12:44;;;;;;;11.45;5.32;;;;;;;14.28;100.00;100223.69;5037288;28;20063;-68
2022/05/12 04:15:13;;;;;;;11.85;5.40;;;;;;;14.25;100.00;100223.94;5038871;28;20056;-68
2022/05/12 04:17:43;;;;;;;11.38;5.22;;;;;;;14.29;100.00;100230.66;5034713;28;20063;-68
2022/05/12 04:20:14;;;;;;;13.65;5.65;;;;;;;14.27;100.00;100233.41;5035377;28;20045;-69
2022/05/12 04:22:44;;;;;;;10.77;5.13;;;;;;;14.29;100.00;100225.38;5041423;28;20041;-68
2022/05/12 04:25:11;;;;;;;12.02;5.28;;;;;;;14.29;100.00;100220.91;5035229;28;20056;-68
2022/05/12 04:27:40;;;;;;;10.82;4.90;;;;;;;14.29;100.00;100231.50;5025484;28;20053;-68
2022/05/12 04:30:11;;;;;;;11.85;4.30;;;;;;;14.28;100.00;100229.84;5024764;28;20067;-68
2022/05/12 04:32:39;;;;;;;15.02;4.57;;;;;;;14.34;100.00;100252.31;5033070;28;20399;-68
2022/05/12 04:35:12;;;;;;;9.75;5.15;;;;;;;14.30;100.00;100238.47;5020499;28;20057;-68
2022/05/12 04:37:45;;;;;;;12.48;4.40;;;;;;;14.31;100.00;100255.22;5043243;28;20048;-68
2022/05/12 04:40:30;;;;;;;11.02;5.13;;;;;;;14.31;100.00;100258.69;5022205;28;20056;-69
2022/05/12 04:42:59;;;;;;;7.45;4.10;;;;;;;14.30;100.00;100264.13;5042132;28;20569;-71
2022/05/12 04:45:28;;;;;;;16.83;4.93;;;;;;;14.26;100.00;100260.88;5035976;28;20063;-71
2022/05/12 04:47:56;;;;;;;11.65;4.28;;;;;;;14.21;100.00;100271.00;5039242;28;20049;-70
2022/05/12 04:50:26;;;;;;;9.07;3.80;;;;;;;14.30;100.00;100274.72;5038798;28;20060;-68
2022/05/12 04:52:54;;;;;;;10.73;4.00;;;;;;;14.29;100.00;100280.97;5007073;28;20464;-69
2022/05/12 04:55:21;;;;;;;7.65;3.55;;;;;;;14.35;100.00;100283.13;5041654;28;20049;-70
2022/05/12 04:57:57;;;;;;;9.02;3.65;;;;;;;14.42;100.00;100294.94;5021116;28;20473;-69
2022/05/12 05:00:30;;;;;;;7.95;4.25;;;;;;;14.46;100.00;100300.81;5032695;28;20537;-68
2022/05/12 05:02:58;;;;;;;9.73;4.40;;;;;;;14.42;99.62;100306.34;5040897;28;20092;-69
2022/05/12 05:05:26;;;;;;;8.05;3.85;;;;;;;14.46;98.60;100322.84;5038455;28;20055;-69
2022/05/12 05:07:54;;;;;;;7.30;3.45;;;;;;;14.51;96.79;100323.34;5040224;28;20472;-68
2022/05/12 05:10:21;;;;;;;13.63;3.97;;;;;;;14.50;96.61;100328.75;5034774;28;20496;-68
2022/05/12 05:12:49;;;;;;;10.45;4.03;;;;;;;14.59;95.15;100335.97;5045347;28;20468;-69
2022/05/12 05:15:16;;;;;;;4.85;2.97;;;;;;;14.71;93.69;100331.50;5020652;28;20053;-68
2022/05/12 05:17:44;;;;;;;9.05;2.95;;;;;;;14.63;93.07;100353.31;5032984;28;20053;-70
2022/05/12 05:20:16;;;;;;;5.78;3.13;;;;;;;14.73;91.70;100356.91;5021592;28;20056;-69
2022/05/12 05:22:45;;;;;;;7.25;2.95;;;;;;;14.72;89.96;100341.97;5052341;28;20557;-69
2022/05/12 05:25:13;;;;;;;10.00;3.05;;;;;;;14.72;88.76;100365.81;5037885;28;20053;-69
2022/05/12 05:27:40;;;;;;;9.25;3.50;;;;;;;14.74;88.15;100385.09;5041671;28;20060;-68
2022/05/12 05:30:11;;;;;;;11.85;2.97;;;;;;;14.72;86.79;100384.34;5023297;28;20136;-69
2022/05/12 05:32:38;;;;;;;12.98;2.88;;;;;;;14.75;85.52;100383.28;5038373;28;20733;-68
2022/05/12 05:35:07;;;;;;;6.93;2.50;;;;;;;14.68;85.28;100386.44;5035744;28;20061;-69
2022/05/12 05:37:36;;;;;;;5.82;2.58;;;;;;;14.62;85.97;100400.16;5022211;28;20131;-69
2022/05/12 05:40:05;;;;;;;7.90;3.25;;;;;;;14.53;84.88;100398.22;5035077;28;20037;-70
2022/05/12 05:42:33;;;;;;;6.63;2.38;;;;;;;14.50;83.62;100437.34;5041374;28;20064;-70
2022/05/12 05:45:00;;;;;;;9.15;2.53;;;;;;;14.43;80.46;100416.63;5036310;28;20297;-70
2022/05/12 05:47:30;;;;;;;9.48;2.78;;;;;;;14.43;81.07;100423.72;5044011;28;20037;-71
2022/05/12 05:49:58;;;;;;;6.07;2.13;;;;;;;14.49;79.47;100417.97;5053552;28;20118;-70
2022/05/12 05:55:11;;;;;;;5.28;2.15;;;;;;;14.60;78.95;100459.53;5039511;28;20065;-71
2022/05/12 05:57:39;;;;;;;9.00;2.33;;;;;;;14.63;77.16;100438.94;5053469;28;20043;-70
2022/05/12 06:00:07;;;;;;;8.98;2.20;;;;;;;14.71;77.28;100448.09;5042140;28;20053;-71
2022/05/12 06:02:35;;;;;;;6.47;1.80;;;;;;;14.65;76.22;100450.25;5041889;28;20052;-71
2022/05/12 06:05:04;;;;;;;9.15;2.05;;;;;;;14.67;75.31;100458.06;5040412;28;20054;-69
2022/05/12 06:07:34;;;;;;;9.27;1.77;;;;;;;14.70;75.06;100473.75;5027506;28;20399;-70
2022/05/12 06:10:02;;;;;;;6.50;1.83;;;;;;;14.56;73.52;100492.53;5039174;28;20048;-69
2022/05/12 06:12:30;;;;;;;6.40;1.77;;;;;;;14.59;73.93;100505.50;5037860;28;20135;-70
2022/05/12 06:14:59;;;;;;;8.23;2.00;;;;;;;14.62;73.70;100494.69;5037589;28;20049;-70
2022/05/12 06:17:26;;;;;;;9.23;2.30;;;;;;;14.77;73.20;100525.31;5038053;28;20075;-70
2022/05/12 06:19:54;;;;;;;7.40;2.05;;;;;;;14.77;72.64;100513.84;5024018;28;20051;-70
2022/05/12 06:22:21;;;;;;;5.18;1.90;;;;;;;14.76;72.01;100517.44;5030222;28;20538;-70
2022/05/12 06:24:49;;;;;;;7.38;1.63;;;;;;;14.77;71.83;100565.06;5046528;28;20097;-70
2022/05/12 06:27:19;;;;;;;5.13;1.67;;;;;;;14.66;72.01;100549.97;5045858;28;20045;-70
2022/05/12 06:29:47;;;;;;;6.18;1.65;;;;;;;14.64;71.50;100543.97;5031768;28;20064;-70
2022/05/12 06:32:15;;;;;;;6.20;1.75;;;;;;;14.64;71.92;100545.75;5009059;28;20048;-70
2022/05/12 06:34:43;;;;;;;3.63;1.95;;;;;;;14.75;71.48;100551.06;5043316;28;20048;-70
2022/05/12 06:37:10;;;;;;;4.15;1.25;;;;;;;14.59;71.14;100562.00;5008601;28;20546;-70
2022/05/12 06:39:38;;;;;;;3.78;1.80;;;;;;;14.68;70.60;100569.25;5023405;28;20056;-70
2022/05/12 06:42:05;;;;;;;3.92;1.40;;;;;;;14.79;70.61;100568.41;5022375;28;20049;-70
2022/05/12 06:44:34;;;;;;;8.35;1.42;;;;;;;14.71;70.47;100589.34;5035210;28;20045;-70
2022/05/12 06:47:02;;;;;;;4.75;1.60;;;;;;;14.75;70.38;100579.38;5042748;28;20064;-70
2022/05/12 06:49:29;;;;;;;7.50;1.98;;;;;;;14.77;70.31;100610.09;5038722;28;20055;-70
2022/05/12 06:51:57;;;;;;;4.45;1.23;;;;;;;14.86;70.17;100605.88;5043567;28;20052;-70
2022/05/12 06:54:24;;;;;;;6.00;1.60;;;;;;;14.82;70.05;100599.16;5029702;28;20444;-70
2022/05/12 06:56:51;;;;;;;4.00;1.10;;;;;;;14.93;69.66;100607.94;5045575;28;20102;-71
2022/05/12 06:59:19;;;;;;;5.03;1.10;;;;;;;14.91;69.69;100627.59;5044318;28;20053;-71
2022/05/12 07:01:46;;;;;;;5.15;1.10;;;;;;;15.12;68.93;100625.06;5045182;28;20055;-71
2022/05/12 07:04:13;;;;;;;5.55;1.40;;;;;;;15.18;69.14;100629.91;5032783;28;20056;-71
2022/05/12 07:06:40;;;;;;;2.88;1.25;;;;;;;15.15;68.37;100649.53;5029445;28;20360;-71
2022/05/12 07:09:07;;;;;;;6.88;1.15;;;;;;;14.90;68.54;100645.31;5024076;28;20112;-72
2022/05/12 07:11:35;;;;;;;5.95;1.10;;;;;;;14.91;67.75;100670.00;5043056;28;20053;-72
2022/05/12 07:14:02;;;;;;;3.28;1.33;;;;;;;14.95;67.84;100642.31;5038395;28;20634;-72
2022/05/12 07:16:29;;;;;;;5.15;2.05;;;;;;;15.12;67.60;100670.16;5038914;28;20088;-72
2022/05/12 07:18:57;;;;;;;5.40;1.50;;;;;;;15.11;66.61;100658.69;5044736;28;20049;-72
2022/05/12 07:27:00;;;;;;;4.50;1.23;;;;;;;15.66;64.86;100674.78;5043202;28;20049;-73
2022/05/12 07:29:28;;;;;;;9.25;1.30;;;;;;;15.71;65.42;100699.13;5039752;28;20365;-73
2022/05/12 07:31:55;;;;;;;2.97;0.73;;;;;;;15.89;64.72;100691.53;5030801;28;20360;-73
2022/05/12 07:34:23;;;;;;;13.45;1.45;;;;;;;16.01;64.25;100703.81;5041906;28;20048;-73
2022/05/12 07:36:52;;;;;;;2.40;0.85;;;;;;;16.06;63.61;100708.75;5036718;28;20526;-74
2022/05/12 07:39:26;;;;;;;13.48;1.58;;;;;;;15.96;62.13;100737.88;5036075;28;20055;-73
2022/05/12 07:41:55;;;;;;;2.42;0.90;;;;;;;15.50;61.57;100761.84;5026577;28;20487;-73
2022/05/12 07:44:29;;;;;;;1.45;0.68;;;;;;;15.27;62.94;100753.00;5021535;28;20056;-73
2022/05/12 07:46:56;;;;;;;2.53;0.70;;;;;;;15.06;63.13;100748.34;5041833;28;20503;-73
2022/05/12 07:49:24;;;;;;;2.70;0.90;;;;;;;15.26;62.84;100762.75;5043921;28;20044;-73
2022/05/12 07:51:51;;;;;;;2.58;1.08;;;;;;;15.46;62.44;100779.81;5047125;28;20057;-74
2022/05/12 07:54:18;;;;;;;4.18;0.80;;;;;;;15.62;61.66;100774.13;5045782;28;20143;-74
2022/05/12 07:56:46;;;;;;;4.00;1.17;;;;;;;15.68;60.42;100773.72;5053623;28;20063;-73
2022/05/12 07:59:13;;;;;;;7.43;0.65;;;;;;;15.75;60.01;100784.69;5027649;28;20538;-73
2022/05/12 08:01:41;;;;;;;2.60;0.80;;;;;;;15.76;59.03;100791.69;5007499;28;20045;-74
2022/05/12 08:04:08;;;;;;;2.53;0.80;;;;;;;15.53;59.02;100814.66;5038749;28;20048;-73
2022/05/12 08:06:36;;;;;;;4.47;0.70;;;;;;;15.44;59.80;100800.28;5043488;28;20657;-73
2022/05/12 08:09:03;;;;;;;3.58;0.70;;;;;;;15.51;59.65;100793.56;5043635;28;20057;-73
2022/05/12 08:11:31;;;;;;;2.85;1.30;;;;;;;15.49;60.44;100808.75;5026012;28;20124;-72
2022/05/12 08:13:58;;;;;;;3.85;1.00;;;;;;;15.28;62.03;100815.69;5024624;28;20051;-72
2022/05/12 08:16:27;;;;;;;7.75;0.82;;;;;;;14.94;64.58;100826.16;5023702;28;20041;-73
2022/05/12 08:18:54;;;;;;;3.50;0.82;;;;;;;14.94;65.28;100834.09;5038116;28;20125;-71
2022/05/12 08:21:23;;;;;;;5.10;0.70;;;;;;;15.04;64.95;100843.09;5044387;28;20041;-71
2022/05/12 08:23:54;;;;;;;5.95;0.93;;;;;;;14.76;65.61;100838.09;5016627;28;20057;-73
2022/05/12 08:26:21;;;;;;;3.28;0.90;;;;;;;15.01;65.68;100848.59;5035915;28;20144;-72
2022/05/12 08:28:50;;;;;;;2.10;0.70;;;;;;;15.26;64.41;100854.72;5041976;28;20072;-73
2022/05/12 08:31:20;;;;;;;7.38;0.98;;;;;;;15.73;63.35;100853.81;5019132;28;20045;-72
2022/05/12 08:33:48;;;;;;;5.90;1.33;;;;;;;15.85;62.47;100854.66;5024176;28;20056;-72
2022/05/12 08:36:15;;;;;;;4.63;1.23;;;;;;;15.96;62.39;100852.03;5008962;28;20538;-72
2022/05/12 08:38:44;;;;;;;5.85;1.10;;;;;;;15.72;61.19;100860.09;5047331;28;20067;-72
2022/05/12 08:41:28;;;;;;;2.25;0.70;;;;;;;15.78;59.99;100885.31;5043234;28;20080;-72
2022/05/12 08:44:08;;;;;;;3.72;0.80;;;;;;;15.98;58.03;100867.84;5011127;28;20053;-71
2022/05/12 08:46:43;;;;;;;2.95;1.20;;;;;;;15.96;57.71;100878.59;5024635;28;20064;-72
2022/05/12 08:49:18;;;;;;;2.63;0.80;;;;;;;15.99;57.84;100881.03;5035429;28;20054;-72
2022/05/12 08:51:50;;;;;;;3.05;0.95;;;;;;;16.33;56.32;100881.03;5024879;28;20036;-73
2022/05/12 08:54:22;;;;;;;3.78;1.10;;;;;;;16.55;55.94;100885.50;5023890;28;20045;-73
2022/05/12 08:57:00;;;;;;;2.10;0.70;;;;;;;16.37;55.11;100895.75;5029678;28;20091;-73
2022/05/12 08:59:27;;;;;;;2.35;0.82;;;;;;;15.68;57.01;100893.16;5018022;28;20547;-75
2022/05/12 09:02:03;;;;;;;4.10;1.10;;;;;;;16.02;56.44;100899.34;5043571;28;20041;-72
2022/05/12 09:04:30;;;;;;;;;;;;;;;16.34;55.39;100903.97;5021676;28;20704;-73
2022/05/12 09:07:29;;;;;;;5.57;1.00;;;;;;;16.39;53.63;100904.44;5036418;28;20306;-73
2022/05/12 09:10:01;;;;;;;3.95;1.00;;;;;;;16.55;52.56;100898.78;5037443;28;20058;-73
2022/05/12 09:12:53;;;;;;;11.23;2.05;;;;;;;16.99;53.13;100905.03;5041239;28;20041;-73
2022/05/12 09:15:24;;;;;;;3.75;1.13;;;;;;;17.42;51.90;100908.47;5034450;28;20060;-72
2022/05/12 09:17:59;;;;;;;1.98;0.80;;;;;;;17.31;50.92;100910.34;5023385;28;20689;-73
2022/05/12 09:20:29;;;;;;;2.60;0.90;;;;;;;17.12;51.60;100932.31;5035317;28;20071;-73
2022/05/12 09:22:58;;;;;;;5.05;1.20;;;;;;;16.92;52.18;100920.63;5037077;28;20048;-72
2022/05/12 09:25:35;;;;;;;12.82;1.02;;;;;;;16.79;52.06;100925.22;5041457;28;20112;-73
2022/05/12 09:28:25;;;;;;;6.68;0.90;;;;;;;17.31;51.09;100936.97;5027944;28;20063;-72
2022/05/12 09:30:55;;;;;;;4.28;1.23;;;;;;;17.31;49.01;100924.50;5019390;28;20637;-72
2022/05/12 09:33:34;;;;;;;9.18;1.73;;;;;;;17.38;49.67;100938.13;5027254;28;20518;-73
2022/05/12 09:36:05;;;;;;;4.55;1.45;;;;;;;17.28;50.71;100937.22;5036867;28;20053;-73
2022/05/12 09:38:44;;;;;;;3.83;1.20;;;;;;;16.74;51.08;100943.38;5040418;28;20058;-73
2022/05/12 09:41:20;;;;;;;3.35;1.13;;;;;;;16.80;51.37;100934.94;5038634;28;20049;-73
2022/05/12 09:43:53;;;;;;;4.10;0.90;;;;;;;17.07;50.76;100942.50;5037589;28;20061;-72
2022/05/12 09:46:26;;;;;;;4.38;1.00;;;;;;;17.37;49.77;100957.75;5035175;28;20140;-73
2022/05/12 09:48:53;;;;;;;4.53;1.00;;;;;;;17.66;48.71;100942.88;5019277;28;20498;-72
2022/05/12 09:51:33;;;;;;;3.42;1.17;;;;;;;17.59;48.53;100949.69;5038864;28;20041;-71
2022/05/12 09:54:36;;;;;;;3.40;1.02;;;;;;;18.04;48.75;100957.47;5036742;28;20049;-72
2022/05/12 09:57:10;;;;;;;4.95;1.25;;;;;;;18.11;47.83;100947.16;4945046;28;20704;-72
2022/05/12 09:59:38;;;;;;;3.75;1.27;;;;;;;17.80;48.23;100947.06;5027783;28;20828;-72
2022/05/12 10:02:12;;;;;;;4.43;1.27;;;;;;;17.75;49.38;100959.09;5036354;28;20076;-72
2022/05/12 10:10:18;;;;;;;4.75;1.13;;;;;;;17.91;48.67;100949.66;5018032;28;20045;-72
2022/05/12 10:12:59;;;;;;;4.35;0.73;;;;;;;18.01;45.28;100957.72;5016564;28;20049;-72
2022/05/12 10:15:26;;;;;;;4.03;1.05;;;;;;;18.21;44.93;100937.38;5024386;28;20055;-72
2022/05/12 10:17:57;;;;;;;6.05;1.02;;;;;;;18.63;44.04;100934.63;5039687;28;20052;-72
2022/05/12 10:20:26;;;;;;;3.67;1.10;;;;;;;18.82;42.82;100936.53;5003972;28;20306;-71
2022/05/12 10:23:05;;;;;;;6.68;1.10;;;;;;;18.70;43.17;100941.13;5015893;28;20136;-71
2022/05/12 10:26:00;;;;;;;5.38;1.40;;;;;;;17.98;43.93;100951.81;5036264;28;20085;-74
2022/05/12 10:29:05;;;;;;;2.38;0.73;;;;;;;17.89;43.28;100956.94;5016050;28;20741;-73
2022/05/12 10:31:37;;;;;;;6.57;1.13;;;;;;;17.94;43.21;100957.41;5004651;28;20049;-73
2022/05/12 10:34:24;;;;;;;4.25;1.17;;;;;;;18.25;43.66;100960.13;5020694;28;20080;-73
2022/05/12 10:37:16;;;;;;;2.78;0.95;;;;;;;18.33;42.61;100959.47;5043868;28;20053;-73
2022/05/12 10:39:53;;;;;;;3.78;0.80;;;;;;;18.30;42.76;100973.91;5042800;28;20055;-73
2022/05/12 10:42:40;;;;;;;3.55;0.93;;;;;;;18.39;42.78;100966.94;5044434;28;20055;-73
2022/05/12 10:45:28;;;;;;;2.60;1.10;;;;;;;18.27;42.69;100947.50;5044655;28;20052;-73
2022/05/12 10:48:16;;;;;;;3.13;0.85;;;;;;;18.14;43.76;100965.50;5056000;28;20045;-73
2022/05/12 10:51:04;;;;;;;1.60;0.80;;;;;;;18.42;41.89;100964.00;5033412;28;20044;-73
2022/05/12 10:53:55;;;;;;;3.47;1.10;;;;;;;18.71;42.61;100962.34;5038927;28;20060;-71
2022/05/12 10:56:41;;;;;;;5.05;1.25;;;;;;;18.84;42.29;100959.44;5032984;28;20057;-73
2022/05/12 10:59:24;;;;;;;1.85;0.88;;;;;;;18.87;42.43;100964.50;5032356;28;20052;-73
2022/05/12 11:01:59;;;;;;;3.58;1.10;;;;;;;19.20;42.00;100947.28;5034567;28;20922;-73
2022/05/12 11:04:31;;;;;;;4.73;1.30;;;;;;;18.99;41.09;100973.22;5040251;28;20056;-74
2022/05/12 11:07:01;;;;;;;3.38;0.73;;;;;;;19.34;41.10;100963.88;5035851;28;20064;-73
2022/05/12 11:09:36;;;;;;;10.35;1.38;;;;;;;19.53;41.27;100963.06;5048241;28;20045;-74
2022/05/12 11:12:20;;;;;;;8.57;1.48;;;;;;;18.89;42.14;100970.53;5046912;28;20049;-73
2022/05/12 11:15:05;;;;;;;3.63;0.95;;;;;;;19.14;41.32;100968.38;5040892;28;20045;-74
2022/05/12 11:17:40;;;;;;;5.43;1.38;;;;;;;19.51;41.47;100963.22;5042175;28;20059;-73
2022/05/12 11:20:23;;;;;;;3.25;0.98;;;;;;;19.89;40.62;100969.53;5035913;28;20036;-74
2022/05/12 11:23:02;;;;;;;4.90;1.27;;;;;;;19.11;40.57;100971.31;5042175;28;20049;-73
2022/05/12 11:25:34;;;;;;;6.57;1.25;;;;;;;19.17;41.40;100968.91;5041101;28;20037;-73
2022/05/12 11:31:37;;;;;;;2.58;0.88;;;;;;;19.40;41.33;100968.66;5035857;28;20040;-73
2022/05/12 11:34:06;;;;;;;;;;;;;;;19.62;41.69;100992.47;5042128;28;20156;-72
2022/05/12 11:36:41;;;;;;;1.83;0.90;;;;;;;19.43;40.71;100977.25;5044229;28;19920;-72
2022/05/12 11:39:27;;;;;;;;;;;;;;;19.61;41.27;100977.44;5035084;28;20064;-73
2022/05/12 11:42:14;;;;;;;4.40;1.17;;;;;;;19.54;41.59;100989.63;5041660;28;19924;-72
2022/05/12 11:45:02;;;;;;;4.45;1.50;;;;;;;19.01;42.91;100995.28;5020096;28;20395;-72
2022/05/12 11:47:36;;;;;;;7.25;1.20;;;;;;;19.37;41.97;100979.66;5041795;28;20064;-72
2022/05/12 11:50:15;;;;;;;4.47;1.10;;;;;;;19.64;41.43;100982.50;5042792;28;20045;-73
2022/05/12 11:52:59;;;;;;;9.52;1.65;;;;;;;19.91;40.19;100991.63;5034287;28;20137;-74
2022/05/12 11:55:32;;;;;;;1.88;0.70;;;;;;;19.55;39.96;100987.81;5016220;28;20049;-73
2022/05/12 11:58:11;;;;;;;4.95;0.90;;;;;;;20.03;39.58;100981.63;5044303;28;20053;-73